createdAt,value
2022-08-25T00:00:51.554Z,16.50
2022-08-25T00:04:55.255Z,16.40
2022-08-25T00:09:00.058Z,16.50
2022-08-25T00:13:06.919Z,16.50
2022-08-25T00:17:10.250Z,16.50
2022-08-25T00:21:14.855Z,16.50
2022-08-25T00:25:18.603Z,16.60
2022-08-25T00:29:25.944Z,16.50
2022-08-25T00:33:31.230Z,16.60
2022-08-25T00:37:35.669Z,16.60
2022-08-25T00:41:40.426Z,16.60
2022-08-25T00:45:45.107Z,16.60
2022-08-25T00:49:51.766Z,16.60
2022-08-25T00:53:55.489Z,16.60
2022-08-25T00:58:03.746Z,16.50
2022-08-25T01:02:10.216Z,16.60
2022-08-25T01:06:17.159Z,16.50
2022-08-25T01:10:22.623Z,16.50
2022-08-25T01:14:27.313Z,16.50
2022-08-25T01:18:44.631Z,16.50
2022-08-25T01:22:55.253Z,16.50
2022-08-25T01:26:59.306Z,16.50
2022-08-25T01:31:02.806Z,16.40
2022-08-25T01:35:06.914Z,16.40
2022-08-25T01:39:12.257Z,16.40
2022-08-25T01:43:23.609Z,16.40
2022-08-25T01:47:26.932Z,16.40
2022-08-25T01:51:39.003Z,16.30
2022-08-25T01:55:53.094Z,16.30
2022-08-25T01:59:57.606Z,16.20
2022-08-25T02:04:01.020Z,16.10
2022-08-25T02:08:05.890Z,16.10
2022-08-25T02:12:11.226Z,16.10
2022-08-25T02:16:20.840Z,16.10
2022-08-25T02:20:24.925Z,16.10
2022-08-25T02:24:28.357Z,16.20
2022-08-25T02:28:33.068Z,16.20
2022-08-25T02:32:36.355Z,16.30
2022-08-25T02:36:40.233Z,16.30
2022-08-25T02:40:43.630Z,16.30
2022-08-25T02:44:48.255Z,16.30
2022-08-25T02:48:53.038Z,16.40
2022-08-25T02:52:56.284Z,16.40
2022-08-25T02:56:59.708Z,16.30
2022-08-25T03:01:04.898Z,16.30
2022-08-25T03:05:09.837Z,16.30
2022-08-25T03:09:13.935Z,16.30
2022-08-25T03:13:18.113Z,16.30
2022-08-25T03:17:22.809Z,16.30
2022-08-25T03:21:26.593Z,16.30
2022-08-25T03:25:47.594Z,16.30
2022-08-25T03:29:51.661Z,16.20
2022-08-25T03:33:57.008Z,16.30
2022-08-25T03:38:00.769Z,16.20
2022-08-25T03:42:05.389Z,16.20
2022-08-25T03:46:08.851Z,16.20
2022-08-25T03:50:14.319Z,16.20
2022-08-25T03:54:19.461Z,16.30
2022-08-25T03:58:22.772Z,16.30
2022-08-25T04:02:26.132Z,16.20
2022-08-25T04:06:31.914Z,16.20
2022-08-25T04:10:35.379Z,16.20
2022-08-25T04:14:38.760Z,16.30
2022-08-25T04:18:42.670Z,16.40
2022-08-25T04:22:47.557Z,16.40
2022-08-25T04:26:52.295Z,16.40
2022-08-25T04:30:55.584Z,16.40
2022-08-25T04:34:58.861Z,16.50
2022-08-25T04:39:04.682Z,16.50
2022-08-25T04:43:08.040Z,16.50
2022-08-25T04:47:12.320Z,16.50
2022-08-25T04:51:19.192Z,16.60
2022-08-25T04:55:24.115Z,16.60
2022-08-25T04:59:29.520Z,16.70
2022-08-25T05:03:33.930Z,16.80
2022-08-25T05:07:38.270Z,16.90
2022-08-25T05:11:42.989Z,17.00
2022-08-25T05:15:54.162Z,17.10
2022-08-25T05:19:57.483Z,17.20
2022-08-25T05:24:03.111Z,17.30
2022-08-25T05:28:08.290Z,17.40
2022-08-25T05:32:11.987Z,17.60
2022-08-25T05:36:17.451Z,17.70
2022-08-25T05:40:22.401Z,17.80
2022-08-25T05:44:27.291Z,17.90
2022-08-25T05:48:30.683Z,18.10
2022-08-25T05:52:33.990Z,18.20
2022-08-25T05:56:37.262Z,18.30
2022-08-25T06:00:42.150Z,18.50
2022-08-25T06:04:45.574Z,18.70
2022-08-25T06:08:48.956Z,18.90
2022-08-25T06:12:52.337Z,19.10
2022-08-25T06:16:57.565Z,19.20
2022-08-25T06:21:01.229Z,19.50
2022-08-25T06:25:04.836Z,19.60
2022-08-25T06:29:08.256Z,19.80
2022-08-25T06:33:13.162Z,20.10
2022-08-25T06:37:16.998Z,20.40
2022-08-25T06:41:20.303Z,20.60
2022-08-25T06:45:23.580Z,20.70
2022-08-25T06:49:31.858Z,20.80
2022-08-25T06:53:36.566Z,20.90
2022-08-25T06:57:39.892Z,21.20
2022-08-25T07:01:43.547Z,21.40
2022-08-25T07:05:54.297Z,21.70
2022-08-25T07:09:57.800Z,21.90
2022-08-25T07:14:03.182Z,22.20
2022-08-25T07:18:07.173Z,22.40
2022-08-25T07:22:11.978Z,22.30
2022-08-25T07:30:42.608Z,22.10
2022-08-25T07:35:03.042Z,22.20
2022-08-25T07:39:08.010Z,22.70
2022-08-25T07:43:11.756Z,22.90
2022-08-25T07:47:16.094Z,23.10
2022-08-25T07:51:19.538Z,23.20
2022-08-25T07:55:25.511Z,23.40
2022-08-25T07:59:28.910Z,23.30
2022-08-25T08:03:50.577Z,23.40
2022-08-25T08:07:55.252Z,23.30
2022-08-25T08:12:00.507Z,23.40
2022-08-25T08:16:03.929Z,22.70
2022-08-25T08:20:15.073Z,22.80
2022-08-25T08:24:38.407Z,22.60
2022-08-25T08:28:42.959Z,22.50
2022-08-25T08:33:08.549Z,22.60
2022-08-25T08:37:10.417Z,22.80
2022-08-25T08:42:07.610Z,23.10
2022-08-25T08:46:09.224Z,23.50
2022-08-25T08:50:28.018Z,24.20
2022-08-25T08:54:39.513Z,24.20
2022-08-25T08:58:49.950Z,24.20
2022-08-25T09:03:01.894Z,24.10
2022-08-25T09:07:14.149Z,24.10
2022-08-25T09:11:30.648Z,23.80
2022-08-25T09:16:01.786Z,24.00
2022-08-25T09:20:34.988Z,24.50
2022-08-25T09:24:50.276Z,25.00
2022-08-25T09:29:02.442Z,25.10
2022-08-25T09:33:10.182Z,25.00
2022-08-25T09:37:14.913Z,24.90
2022-08-25T09:41:35.811Z,24.80
2022-08-25T09:45:44.858Z,24.60
2022-08-25T09:49:50.778Z,24.60
2022-08-25T09:53:57.811Z,25.10
2022-08-25T09:58:01.307Z,25.70
2022-08-25T10:02:25.382Z,25.90
2022-08-25T10:06:34.502Z,25.90
2022-08-25T10:10:46.395Z,25.70
2022-08-25T10:14:50.429Z,26.10
2022-08-25T10:19:07.677Z,25.90
2022-08-25T10:23:13.430Z,25.80
2022-08-25T10:27:27.419Z,25.70
2022-08-25T10:31:37.017Z,26.30
2022-08-25T10:35:56.627Z,26.30
2022-08-25T10:40:16.542Z,28.10
2022-08-25T10:44:48.345Z,31.70
2022-08-25T10:48:59.208Z,34.10
2022-08-25T10:53:19.750Z,34.00
2022-08-25T10:57:30.351Z,33.30
2022-08-25T11:02:02.511Z,32.60
2022-08-25T11:06:09.024Z,33.40
2022-08-25T11:10:15.405Z,32.80
2022-08-25T11:14:22.834Z,31.70
2022-08-25T11:18:31.880Z,33.40
2022-08-25T11:22:42.487Z,34.80
2022-08-25T11:26:57.710Z,35.80
2022-08-25T11:31:03.031Z,36.90
2022-08-25T11:35:13.522Z,37.80
2022-08-25T11:39:23.120Z,37.90
2022-08-25T11:43:42.300Z,37.90
2022-08-25T11:48:01.224Z,38.40
2022-08-25T11:52:10.362Z,36.60
2022-08-25T11:56:32.979Z,37.70
2022-08-25T12:00:42.335Z,38.10
2022-08-25T12:04:46.936Z,37.10
2022-08-25T12:09:20.233Z,37.80
2022-08-25T12:13:43.760Z,36.30
2022-08-25T12:18:08.718Z,34.10
2022-08-25T12:22:51.708Z,32.40
2022-08-25T12:27:00.954Z,30.90
2022-08-25T12:31:13.385Z,30.40
2022-08-25T12:35:39.144Z,29.60
2022-08-25T12:39:55.952Z,29.20
2022-08-25T12:44:35.056Z,29.40
2022-08-25T12:48:57.398Z,31.30
2022-08-25T12:53:13.336Z,35.00
2022-08-25T12:57:40.854Z,37.30
2022-08-25T13:02:00.064Z,37.70
2022-08-25T13:06:20.130Z,38.10
2022-08-25T13:10:33.256Z,38.40
2022-08-25T13:14:40.897Z,37.70
2022-08-25T13:18:45.517Z,36.20
2022-08-25T13:22:58.932Z,36.80
2022-08-25T13:27:06.069Z,38.50
2022-08-25T13:31:15.888Z,38.50
2022-08-25T13:35:25.565Z,37.20
2022-08-25T13:39:55.067Z,37.50
2022-08-25T13:44:01.006Z,38.60
2022-08-25T13:48:05.914Z,40.20
2022-08-25T13:52:19.086Z,41.10
2022-08-25T13:56:38.453Z,40.50
2022-08-25T14:00:48.946Z,40.20
2022-08-25T14:04:52.917Z,39.20
2022-08-25T14:09:16.541Z,38.60
2022-08-25T14:13:33.154Z,38.70
2022-08-25T14:17:39.824Z,39.80
2022-08-25T14:21:44.006Z,39.40
2022-08-25T14:25:50.371Z,37.90
2022-08-25T14:29:53.624Z,35.30
2022-08-25T14:33:59.632Z,33.30
2022-08-25T14:38:12.173Z,31.60
2022-08-25T14:42:16.934Z,30.20
2022-08-25T14:46:22.829Z,29.60
2022-08-25T14:50:26.705Z,29.20
2022-08-25T14:54:31.308Z,29.00
2022-08-25T14:58:51.582Z,28.50
2022-08-25T15:02:58.199Z,28.00
2022-08-25T15:07:22.342Z,27.70
2022-08-25T15:11:28.002Z,27.50
2022-08-25T15:15:33.928Z,30.50
2022-08-25T15:19:38.587Z,33.90
2022-08-25T15:23:44.575Z,35.00
2022-08-25T15:27:48.141Z,35.80
2022-08-25T15:31:53.238Z,34.40
2022-08-25T15:35:58.836Z,32.00
2022-08-25T15:40:02.503Z,30.10
2022-08-25T15:44:12.485Z,28.90
2022-08-25T15:48:20.332Z,28.50
2022-08-25T15:52:28.258Z,28.30
2022-08-25T15:56:34.518Z,28.20
2022-08-25T16:00:38.146Z,28.00
2022-08-25T16:04:42.839Z,28.10
2022-08-25T16:08:46.234Z,27.60
2022-08-25T16:12:49.493Z,27.20
2022-08-25T16:16:52.802Z,26.90
2022-08-25T16:20:57.732Z,27.00
2022-08-25T16:25:02.669Z,27.10
2022-08-25T16:29:06.669Z,26.70
2022-08-25T16:33:09.955Z,26.40
2022-08-25T16:37:15.007Z,26.10
2022-08-25T16:41:23.685Z,25.70
2022-08-25T16:45:27.532Z,25.40
2022-08-25T16:49:31.499Z,25.00
2022-08-25T16:53:53.698Z,24.70
2022-08-25T16:57:57.317Z,24.30
2022-08-25T17:02:02.067Z,24.00
2022-08-25T17:06:06.227Z,23.60
2022-08-25T17:10:13.342Z,23.40
2022-08-25T17:14:18.271Z,23.20
2022-08-25T17:18:22.221Z,22.90
2022-08-25T17:22:27.578Z,22.70
2022-08-25T17:26:32.378Z,22.50
2022-08-25T17:30:41.860Z,22.30
2022-08-25T17:34:45.738Z,22.10
2022-08-25T17:38:49.689Z,21.80
2022-08-25T17:42:57.087Z,21.70
2022-08-25T17:47:01.103Z,21.40
2022-08-25T17:51:06.484Z,21.20
2022-08-25T17:55:13.498Z,21.10
2022-08-25T17:59:21.501Z,20.90
2022-08-25T18:03:27.832Z,20.80
2022-08-25T18:07:33.489Z,20.60
2022-08-25T18:11:38.934Z,20.50
2022-08-25T18:15:47.951Z,20.30
2022-08-25T18:19:53.286Z,20.30
2022-08-25T18:23:57.069Z,20.10
2022-08-25T18:28:00.420Z,20.00
2022-08-25T18:32:05.587Z,19.90
2022-08-25T18:36:10.326Z,19.80
2022-08-25T18:40:26.260Z,19.70
2022-08-25T18:44:31.895Z,19.60
2022-08-25T18:48:39.943Z,19.50
2022-08-25T18:52:45.083Z,19.40
2022-08-25T18:56:50.949Z,19.30
2022-08-25T19:00:55.229Z,19.30
2022-08-25T19:05:04.750Z,19.20
2022-08-25T19:09:11.357Z,19.20
2022-08-25T19:13:14.858Z,19.10
2022-08-25T19:17:18.527Z,19.00
2022-08-25T19:21:26.053Z,19.00
2022-08-25T19:25:33.245Z,18.90
2022-08-25T19:29:38.919Z,18.90
2022-08-25T19:33:45.216Z,18.80
2022-08-25T19:37:52.098Z,18.70
2022-08-25T19:41:56.813Z,18.70
2022-08-25T19:46:01.218Z,18.60
2022-08-25T19:50:07.609Z,18.60
2022-08-25T19:54:17.011Z,18.50
2022-08-25T19:58:21.533Z,18.50
2022-08-25T20:02:28.328Z,18.40
2022-08-25T20:06:34.560Z,18.40
2022-08-25T20:10:41.622Z,18.30
2022-08-25T20:14:45.781Z,18.30
2022-08-25T20:18:50.207Z,18.20
2022-08-25T20:22:53.626Z,18.20
2022-08-25T20:26:59.505Z,18.10
2022-08-25T20:31:02.756Z,18.10
2022-08-25T20:35:09.371Z,18.00
2022-08-25T20:39:18.351Z,17.90
2022-08-25T20:43:23.434Z,17.90
2022-08-25T20:47:27.737Z,17.80
2022-08-25T20:52:09.964Z,17.80
2022-08-25T20:56:16.290Z,17.80
2022-08-25T21:00:23.637Z,17.70
2022-08-25T21:04:30.333Z,17.60
2022-08-25T21:08:34.385Z,17.70
2022-08-25T21:12:38.519Z,17.60
2022-08-25T21:16:47.216Z,17.50
2022-08-25T21:20:50.555Z,17.50
2022-08-25T21:24:55.782Z,17.50
2022-08-25T21:29:00.064Z,17.40
2022-08-25T21:33:05.184Z,17.40
2022-08-25T21:37:09.082Z,17.30
2022-08-25T21:41:15.568Z,17.30
2022-08-25T21:45:20.974Z,17.20
2022-08-25T21:49:26.483Z,17.20
2022-08-25T21:53:30.219Z,17.20
2022-08-25T21:57:36.611Z,17.10
2022-08-25T22:01:40.223Z,17.10
2022-08-25T22:05:45.698Z,17.10
2022-08-25T22:09:51.458Z,17.00
2022-08-25T22:13:56.765Z,17.00
2022-08-25T22:18:01.605Z,16.90
2022-08-25T22:22:06.938Z,16.90
2022-08-25T22:26:10.953Z,16.90
2022-08-25T22:30:14.996Z,16.90
2022-08-25T22:34:18.774Z,16.90
2022-08-25T22:38:35.390Z,16.80
2022-08-25T22:42:38.594Z,16.80
2022-08-25T22:46:43.792Z,16.70
2022-08-25T22:50:48.686Z,16.70
2022-08-25T22:54:53.854Z,16.60
2022-08-25T22:58:57.889Z,16.60
2022-08-25T23:03:01.228Z,16.60
2022-08-25T23:07:04.944Z,16.60
2022-08-25T23:11:12.813Z,16.50
2022-08-25T23:15:16.169Z,16.40
2022-08-25T23:19:20.969Z,16.40
2022-08-25T23:23:24.612Z,16.40
2022-08-25T23:27:29.244Z,16.40
2022-08-25T23:31:33.248Z,16.30
2022-08-25T23:35:36.577Z,16.30
2022-08-25T23:39:45.682Z,16.30
2022-08-25T23:43:50.741Z,16.30
2022-08-25T23:47:54.022Z,16.20
2022-08-25T23:51:57.273Z,16.20
2022-08-25T23:56:00.636Z,16.20
